sensor_id;sensor_type;location;lat;lon;timestamp;P1;durP1;ratioP1;P2;durP2;ratioP2
10827;SDS011;5467;59.334;13.512;2022-08-24T00:00:27;0.30;;;0.30;;
10827;SDS011;5467;59.334;13.512;2022-08-24T00:02:54;0.40;;;0.40;;
10827;SDS011;5467;59.334;13.512;2022-08-24T00:05:21;0.40;;;0.40;;
10827;SDS011;5467;59.334;13.512;2022-08-24T00:07:49;0.30;;;0.30;;
10827;SDS011;5467;59.334;13.512;2022-08-24T00:10:16;0.40;;;0.40;;
10827;SDS011;5467;59.334;13.512;2022-08-24T00:12:46;0.50;;;0.50;;
10827;SDS011;5467;59.334;13.512;2022-08-24T00:15:14;0.50;;;0.50;;
10827;SDS011;5467;59.334;13.512;2022-08-24T00:17:43;0.40;;;0.40;;
10827;SDS011;5467;59.334;13.512;2022-08-24T00:20:11;0.57;;;0.57;;
10827;SDS011;5467;59.334;13.512;2022-08-24T00:22:38;0.60;;;0.60;;
10827;SDS011;5467;59.334;13.512;2022-08-24T00:25:05;0.40;;;0.40;;
10827;SDS011;5467;59.334;13.512;2022-08-24T00:27:34;0.40;;;0.40;;
10827;SDS011;5467;59.334;13.512;2022-08-24T00:30:03;0.40;;;0.40;;
10827;SDS011;5467;59.334;13.512;2022-08-24T00:32:30;0.40;;;0.40;;
10827;SDS011;5467;59.334;13.512;2022-08-24T00:34:58;0.40;;;0.40;;
10827;SDS011;5467;59.334;13.512;2022-08-24T00:37:26;0.40;;;0.40;;
10827;SDS011;5467;59.334;13.512;2022-08-24T00:39:53;0.40;;;0.40;;
10827;SDS011;5467;59.334;13.512;2022-08-24T00:42:21;0.30;;;0.30;;
10827;SDS011;5467;59.334;13.512;2022-08-24T00:44:48;0.30;;;0.30;;
10827;SDS011;5467;59.334;13.512;2022-08-24T00:47:16;0.40;;;0.40;;
10827;SDS011;5467;59.334;13.512;2022-08-24T00:49:48;0.40;;;0.40;;
10827;SDS011;5467;59.334;13.512;2022-08-24T00:52:22;0.57;;;0.57;;
10827;SDS011;5467;59.334;13.512;2022-08-24T00:54:54;0.40;;;0.40;;
10827;SDS011;5467;59.334;13.512;2022-08-24T00:57:24;0.50;;;0.50;;
10827;SDS011;5467;59.334;13.512;2022-08-24T00:59:59;0.40;;;0.40;;
10827;SDS011;5467;59.334;13.512;2022-08-24T01:02:32;0.40;;;0.40;;
10827;SDS011;5467;59.334;13.512;2022-08-24T01:05:07;0.30;;;0.30;;
10827;SDS011;5467;59.334;13.512;2022-08-24T01:07:37;0.30;;;0.30;;
10827;SDS011;5467;59.334;13.512;2022-08-24T01:10:06;0.37;;;0.37;;
10827;SDS011;5467;59.334;13.512;2022-08-24T01:12:36;0.40;;;0.40;;
10827;SDS011;5467;59.334;13.512;2022-08-24T01:15:08;0.30;;;0.30;;
10827;SDS011;5467;59.334;13.512;2022-08-24T01:17:36;0.30;;;0.30;;
10827;SDS011;5467;59.334;13.512;2022-08-24T01:20:22;0.30;;;0.30;;
10827;SDS011;5467;59.334;13.512;2022-08-24T01:22:55;0.40;;;0.40;;
10827;SDS011;5467;59.334;13.512;2022-08-24T01:25:29;0.60;;;0.60;;
10827;SDS011;5467;59.334;13.512;2022-08-24T01:27:58;0.37;;;0.37;;
10827;SDS011;5467;59.334;13.512;2022-08-24T01:30:29;0.40;;;0.40;;
10827;SDS011;5467;59.334;13.512;2022-08-24T01:32:56;0.40;;;0.40;;
10827;SDS011;5467;59.334;13.512;2022-08-24T01:35:26;0.40;;;0.40;;
10827;SDS011;5467;59.334;13.512;2022-08-24T01:37:54;0.30;;;0.30;;
10827;SDS011;5467;59.334;13.512;2022-08-24T01:40:30;0.30;;;0.30;;
10827;SDS011;5467;59.334;13.512;2022-08-24T01:43:01;0.33;;;0.33;;
10827;SDS011;5467;59.334;13.512;2022-08-24T01:45:30;0.30;;;0.30;;
10827;SDS011;5467;59.334;13.512;2022-08-24T01:47:57;0.33;;;0.33;;
10827;SDS011;5467;59.334;13.512;2022-08-24T01:50:26;0.30;;;0.30;;
10827;SDS011;5467;59.334;13.512;2022-08-24T01:52:54;0.30;;;0.30;;
10827;SDS011;5467;59.334;13.512;2022-08-24T01:55:23;0.40;;;0.40;;
10827;SDS011;5467;59.334;13.512;2022-08-24T01:57:51;0.30;;;0.30;;
10827;SDS011;5467;59.334;13.512;2022-08-24T02:00:19;0.40;;;0.40;;
10827;SDS011;5467;59.334;13.512;2022-08-24T02:02:46;0.40;;;0.40;;
10827;SDS011;5467;59.334;13.512;2022-08-24T02:05:14;0.50;;;0.50;;
10827;SDS011;5467;59.334;13.512;2022-08-24T02:07:41;0.30;;;0.30;;
10827;SDS011;5467;59.334;13.512;2022-08-24T02:10:10;0.37;;;0.37;;
10827;SDS011;5467;59.334;13.512;2022-08-24T02:12:40;0.40;;;0.40;;
10827;SDS011;5467;59.334;13.512;2022-08-24T02:15:10;0.50;;;0.50;;
10827;SDS011;5467;59.334;13.512;2022-08-24T02:17:38;0.50;;;0.50;;
10827;SDS011;5467;59.334;13.512;2022-08-24T02:20:06;0.40;;;0.40;;
10827;SDS011;5467;59.334;13.512;2022-08-24T02:22:34;0.30;;;0.30;;
10827;SDS011;5467;59.334;13.512;2022-08-24T02:25:01;0.30;;;0.30;;
10827;SDS011;5467;59.334;13.512;2022-08-24T02:27:29;0.40;;;0.40;;
10827;SDS011;5467;59.334;13.512;2022-08-24T02:29:56;0.40;;;0.40;;
10827;SDS011;5467;59.334;13.512;2022-08-24T02:32:24;0.40;;;0.40;;
10827;SDS011;5467;59.334;13.512;2022-08-24T02:34:51;0.30;;;0.30;;
10827;SDS011;5467;59.334;13.512;2022-08-24T02:37:18;0.30;;;0.30;;
10827;SDS011;5467;59.334;13.512;2022-08-24T02:39:45;0.30;;;0.30;;
10827;SDS011;5467;59.334;13.512;2022-08-24T02:42:12;0.30;;;0.30;;
10827;SDS011;5467;59.334;13.512;2022-08-24T02:44:39;0.30;;;0.30;;
10827;SDS011;5467;59.334;13.512;2022-08-24T02:47:06;0.40;;;0.40;;
10827;SDS011;5467;59.334;13.512;2022-08-24T02:49:35;0.40;;;0.40;;
10827;SDS011;5467;59.334;13.512;2022-08-24T02:52:02;0.40;;;0.40;;
10827;SDS011;5467;59.334;13.512;2022-08-24T02:54:29;0.40;;;0.40;;
10827;SDS011;5467;59.334;13.512;2022-08-24T02:56:56;0.40;;;0.40;;
10827;SDS011;5467;59.334;13.512;2022-08-24T02:59:23;0.40;;;0.40;;
10827;SDS011;5467;59.334;13.512;2022-08-24T03:01:50;0.37;;;0.37;;
10827;SDS011;5467;59.334;13.512;2022-08-24T03:04:18;0.30;;;0.30;;
10827;SDS011;5467;59.334;13.512;2022-08-24T03:06:47;0.30;;;0.30;;
10827;SDS011;5467;59.334;13.512;2022-08-24T03:09:14;0.40;;;0.40;;
10827;SDS011;5467;59.334;13.512;2022-08-24T03:11:41;0.40;;;0.40;;
10827;SDS011;5467;59.334;13.512;2022-08-24T03:14:08;0.40;;;0.40;;
10827;SDS011;5467;59.334;13.512;2022-08-24T03:16:35;0.40;;;0.40;;
10827;SDS011;5467;59.334;13.512;2022-08-24T03:19:02;0.40;;;0.40;;
10827;SDS011;5467;59.334;13.512;2022-08-24T03:21:29;0.50;;;0.50;;
10827;SDS011;5467;59.334;13.512;2022-08-24T03:23:58;0.40;;;0.40;;
10827;SDS011;5467;59.334;13.512;2022-08-24T03:26:25;0.40;;;0.40;;
10827;SDS011;5467;59.334;13.512;2022-08-24T03:28:52;0.30;;;0.30;;
10827;SDS011;5467;59.334;13.512;2022-08-24T03:31:19;0.30;;;0.30;;
10827;SDS011;5467;59.334;13.512;2022-08-24T03:33:47;0.40;;;0.40;;
10827;SDS011;5467;59.334;13.512;2022-08-24T03:36:14;0.40;;;0.40;;
10827;SDS011;5467;59.334;13.512;2022-08-24T03:38:41;0.47;;;0.47;;
10827;SDS011;5467;59.334;13.512;2022-08-24T03:41:10;0.33;;;0.33;;
10827;SDS011;5467;59.334;13.512;2022-08-24T03:43:38;0.40;;;0.40;;
10827;SDS011;5467;59.334;13.512;2022-08-24T03:46:13;0.40;;;0.40;;
10827;SDS011;5467;59.334;13.512;2022-08-24T03:48:42;0.37;;;0.37;;
10827;SDS011;5467;59.334;13.512;2022-08-24T03:51:10;0.37;;;0.37;;
10827;SDS011;5467;59.334;13.512;2022-08-24T03:53:38;0.40;;;0.40;;
10827;SDS011;5467;59.334;13.512;2022-08-24T03:56:05;0.30;;;0.30;;
10827;SDS011;5467;59.334;13.512;2022-08-24T03:58:35;0.33;;;0.33;;
10827;SDS011;5467;59.334;13.512;2022-08-24T04:01:02;0.50;;;0.50;;
10827;SDS011;5467;59.334;13.512;2022-08-24T04:03:30;0.47;;;0.47;;
10827;SDS011;5467;59.334;13.512;2022-08-24T04:06:00;0.40;;;0.40;;
10827;SDS011;5467;59.334;13.512;2022-08-24T04:08:27;0.43;;;0.43;;
10827;SDS011;5467;59.334;13.512;2022-08-24T04:10:55;0.40;;;0.40;;
10827;SDS011;5467;59.334;13.512;2022-08-24T04:13:22;0.40;;;0.40;;
10827;SDS011;5467;59.334;13.512;2022-08-24T04:15:51;0.30;;;0.30;;
10827;SDS011;5467;59.334;13.512;2022-08-24T04:18:18;0.40;;;0.40;;
10827;SDS011;5467;59.334;13.512;2022-08-24T04:20:45;0.50;;;0.50;;
10827;SDS011;5467;59.334;13.512;2022-08-24T04:23:12;0.40;;;0.40;;
10827;SDS011;5467;59.334;13.512;2022-08-24T04:25:40;0.60;;;0.60;;
10827;SDS011;5467;59.334;13.512;2022-08-24T04:28:08;0.63;;;0.63;;
10827;SDS011;5467;59.334;13.512;2022-08-24T04:30:38;0.50;;;0.50;;
10827;SDS011;5467;59.334;13.512;2022-08-24T04:33:07;0.43;;;0.43;;
10827;SDS011;5467;59.334;13.512;2022-08-24T04:35:38;0.40;;;0.40;;
10827;SDS011;5467;59.334;13.512;2022-08-24T04:38:05;0.40;;;0.40;;
10827;SDS011;5467;59.334;13.512;2022-08-24T04:40:32;0.30;;;0.30;;
10827;SDS011;5467;59.334;13.512;2022-08-24T04:43:00;0.40;;;0.40;;
10827;SDS011;5467;59.334;13.512;2022-08-24T04:45:27;0.40;;;0.40;;
10827;SDS011;5467;59.334;13.512;2022-08-24T04:47:54;0.37;;;0.37;;
10827;SDS011;5467;59.334;13.512;2022-08-24T04:50:23;0.40;;;0.40;;
10827;SDS011;5467;59.334;13.512;2022-08-24T04:52:50;0.50;;;0.50;;
10827;SDS011;5467;59.334;13.512;2022-08-24T04:55:17;0.40;;;0.40;;
10827;SDS011;5467;59.334;13.512;2022-08-24T04:57:44;0.77;;;0.50;;
10827;SDS011;5467;59.334;13.512;2022-08-24T05:00:11;0.50;;;0.50;;
10827;SDS011;5467;59.334;13.512;2022-08-24T05:02:39;0.30;;;0.30;;
10827;SDS011;5467;59.334;13.512;2022-08-24T05:05:06;0.40;;;0.40;;
10827;SDS011;5467;59.334;13.512;2022-08-24T05:07:36;0.43;;;0.43;;
10827;SDS011;5467;59.334;13.512;2022-08-24T05:10:04;0.40;;;0.40;;
10827;SDS011;5467;59.334;13.512;2022-08-24T05:12:32;0.40;;;0.40;;
10827;SDS011;5467;59.334;13.512;2022-08-24T05:14:59;0.40;;;0.40;;
10827;SDS011;5467;59.334;13.512;2022-08-24T05:17:26;0.40;;;0.40;;
10827;SDS011;5467;59.334;13.512;2022-08-24T05:19:53;0.37;;;0.37;;
10827;SDS011;5467;59.334;13.512;2022-08-24T05:22:20;0.43;;;0.40;;
10827;SDS011;5467;59.334;13.512;2022-08-24T05:24:48;0.40;;;0.40;;
10827;SDS011;5467;59.334;13.512;2022-08-24T05:27:16;0.27;;;0.27;;
10827;SDS011;5467;59.334;13.512;2022-08-24T05:29:43;0.40;;;0.40;;
10827;SDS011;5467;59.334;13.512;2022-08-24T05:32:10;0.37;;;0.37;;
10827;SDS011;5467;59.334;13.512;2022-08-24T05:34:37;0.40;;;0.40;;
10827;SDS011;5467;59.334;13.512;2022-08-24T05:37:04;0.30;;;0.30;;
10827;SDS011;5467;59.334;13.512;2022-08-24T05:39:31;0.40;;;0.40;;
10827;SDS011;5467;59.334;13.512;2022-08-24T05:42:00;0.40;;;0.40;;
10827;SDS011;5467;59.334;13.512;2022-08-24T05:44:27;0.30;;;0.30;;
10827;SDS011;5467;59.334;13.512;2022-08-24T05:46:55;0.30;;;0.30;;
10827;SDS011;5467;59.334;13.512;2022-08-24T05:49:23;0.40;;;0.40;;
10827;SDS011;5467;59.334;13.512;2022-08-24T05:51:50;0.40;;;0.40;;
10827;SDS011;5467;59.334;13.512;2022-08-24T05:54:18;0.30;;;0.30;;
10827;SDS011;5467;59.334;13.512;2022-08-24T05:56:47;0.40;;;0.40;;
10827;SDS011;5467;59.334;13.512;2022-08-24T05:59:16;0.40;;;0.40;;
10827;SDS011;5467;59.334;13.512;2022-08-24T06:01:44;0.37;;;0.37;;
10827;SDS011;5467;59.334;13.512;2022-08-24T06:04:11;0.30;;;0.30;;
10827;SDS011;5467;59.334;13.512;2022-08-24T06:06:38;0.30;;;0.30;;
10827;SDS011;5467;59.334;13.512;2022-08-24T06:09:06;0.40;;;0.40;;
10827;SDS011;5467;59.334;13.512;2022-08-24T06:11:36;0.40;;;0.40;;
10827;SDS011;5467;59.334;13.512;2022-08-24T06:14:06;0.40;;;0.40;;
10827;SDS011;5467;59.334;13.512;2022-08-24T06:16:37;0.37;;;0.37;;
10827;SDS011;5467;59.334;13.512;2022-08-24T06:19:06;0.30;;;0.30;;
10827;SDS011;5467;59.334;13.512;2022-08-24T06:21:35;0.30;;;0.30;;
10827;SDS011;5467;59.334;13.512;2022-08-24T06:24:03;0.40;;;0.40;;
10827;SDS011;5467;59.334;13.512;2022-08-24T06:26:31;0.40;;;0.40;;
10827;SDS011;5467;59.334;13.512;2022-08-24T06:29:16;0.40;;;0.40;;
10827;SDS011;5467;59.334;13.512;2022-08-24T06:31:45;0.43;;;0.43;;
10827;SDS011;5467;59.334;13.512;2022-08-24T06:34:14;0.50;;;0.50;;
10827;SDS011;5467;59.334;13.512;2022-08-24T06:36:42;0.40;;;0.40;;
10827;SDS011;5467;59.334;13.512;2022-08-24T06:39:10;0.43;;;0.43;;
10827;SDS011;5467;59.334;13.512;2022-08-24T06:41:38;0.40;;;0.40;;
10827;SDS011;5467;59.334;13.512;2022-08-24T06:44:05;0.50;;;0.50;;
10827;SDS011;5467;59.334;13.512;2022-08-24T06:46:33;0.40;;;0.40;;
10827;SDS011;5467;59.334;13.512;2022-08-24T06:49:02;0.40;;;0.40;;
10827;SDS011;5467;59.334;13.512;2022-08-24T06:51:29;0.30;;;0.30;;
10827;SDS011;5467;59.334;13.512;2022-08-24T06:53:57;0.53;;;0.40;;
10827;SDS011;5467;59.334;13.512;2022-08-24T06:56:24;0.40;;;0.40;;
10827;SDS011;5467;59.334;13.512;2022-08-24T06:58:52;0.50;;;0.50;;
10827;SDS011;5467;59.334;13.512;2022-08-24T07:01:20;0.40;;;0.40;;
10827;SDS011;5467;59.334;13.512;2022-08-24T07:03:48;0.40;;;0.40;;
10827;SDS011;5467;59.334;13.512;2022-08-24T07:06:17;0.40;;;0.40;;
10827;SDS011;5467;59.334;13.512;2022-08-24T07:08:44;0.33;;;0.33;;
10827;SDS011;5467;59.334;13.512;2022-08-24T07:11:12;0.30;;;0.30;;
10827;SDS011;5467;59.334;13.512;2022-08-24T07:13:41;0.30;;;0.30;;
10827;SDS011;5467;59.334;13.512;2022-08-24T07:16:08;0.30;;;0.30;;
10827;SDS011;5467;59.334;13.512;2022-08-24T07:18:36;0.40;;;0.40;;
10827;SDS011;5467;59.334;13.512;2022-08-24T07:21:03;0.40;;;0.40;;
10827;SDS011;5467;59.334;13.512;2022-08-24T07:23:33;0.53;;;0.53;;
10827;SDS011;5467;59.334;13.512;2022-08-24T07:26:03;0.40;;;0.40;;
10827;SDS011;5467;59.334;13.512;2022-08-24T07:28:34;0.40;;;0.40;;
10827;SDS011;5467;59.334;13.512;2022-08-24T07:31:02;0.40;;;0.40;;
10827;SDS011;5467;59.334;13.512;2022-08-24T07:33:30;0.50;;;0.50;;
10827;SDS011;5467;59.334;13.512;2022-08-24T07:35:57;0.40;;;0.40;;
10827;SDS011;5467;59.334;13.512;2022-08-24T07:38:25;0.60;;;0.60;;
10827;SDS011;5467;59.334;13.512;2022-08-24T07:40:53;0.40;;;0.40;;
10827;SDS011;5467;59.334;13.512;2022-08-24T07:43:20;0.40;;;0.40;;
10827;SDS011;5467;59.334;13.512;2022-08-24T07:45:48;0.70;;;0.70;;
10827;SDS011;5467;59.334;13.512;2022-08-24T07:48:16;0.30;;;0.30;;
10827;SDS011;5467;59.334;13.512;2022-08-24T07:50:43;0.50;;;0.50;;
10827;SDS011;5467;59.334;13.512;2022-08-24T07:53:10;0.40;;;0.40;;
10827;SDS011;5467;59.334;13.512;2022-08-24T07:55:37;0.40;;;0.40;;
10827;SDS011;5467;59.334;13.512;2022-08-24T07:58:06;0.40;;;0.40;;
10827;SDS011;5467;59.334;13.512;2022-08-24T08:00:33;0.50;;;0.43;;
10827;SDS011;5467;59.334;13.512;2022-08-24T08:03:00;0.30;;;0.30;;
10827;SDS011;5467;59.334;13.512;2022-08-24T08:05:28;0.60;;;0.50;;
10827;SDS011;5467;59.334;13.512;2022-08-24T08:07:56;0.57;;;0.57;;
10827;SDS011;5467;59.334;13.512;2022-08-24T08:10:23;0.43;;;0.43;;
10827;SDS011;5467;59.334;13.512;2022-08-24T08:12:54;0.40;;;0.40;;
10827;SDS011;5467;59.334;13.512;2022-08-24T08:15:23;0.50;;;0.50;;
10827;SDS011;5467;59.334;13.512;2022-08-24T08:17:50;0.53;;;0.53;;
10827;SDS011;5467;59.334;13.512;2022-08-24T08:20:18;0.50;;;0.50;;
10827;SDS011;5467;59.334;13.512;2022-08-24T08:22:46;0.33;;;0.33;;
10827;SDS011;5467;59.334;13.512;2022-08-24T08:25:30;0.50;;;0.50;;
10827;SDS011;5467;59.334;13.512;2022-08-24T08:27:58;0.50;;;0.50;;
10827;SDS011;5467;59.334;13.512;2022-08-24T08:30:27;0.60;;;0.60;;
10827;SDS011;5467;59.334;13.512;2022-08-24T08:32:54;0.70;;;0.70;;
10827;SDS011;5467;59.334;13.512;2022-08-24T08:35:21;0.50;;;0.50;;
10827;SDS011;5467;59.334;13.512;2022-08-24T08:37:50;0.60;;;0.60;;
10827;SDS011;5467;59.334;13.512;2022-08-24T08:40:20;0.67;;;0.67;;
10827;SDS011;5467;59.334;13.512;2022-08-24T08:42:58;0.63;;;0.63;;
10827;SDS011;5467;59.334;13.512;2022-08-24T08:45:32;0.63;;;0.63;;
10827;SDS011;5467;59.334;13.512;2022-08-24T08:48:22;0.80;;;0.80;;
10827;SDS011;5467;59.334;13.512;2022-08-24T08:51:28;0.80;;;0.80;;
10827;SDS011;5467;59.334;13.512;2022-08-24T08:54:13;0.80;;;0.80;;
10827;SDS011;5467;59.334;13.512;2022-08-24T08:57:04;0.70;;;0.70;;
10827;SDS011;5467;59.334;13.512;2022-08-24T08:59:43;0.70;;;0.70;;
10827;SDS011;5467;59.334;13.512;2022-08-24T09:02:24;0.70;;;0.70;;
10827;SDS011;5467;59.334;13.512;2022-08-24T09:05:34;0.70;;;0.70;;
10827;SDS011;5467;59.334;13.512;2022-08-24T09:08:16;0.70;;;0.70;;
10827;SDS011;5467;59.334;13.512;2022-08-24T09:10:53;0.73;;;0.73;;
10827;SDS011;5467;59.334;13.512;2022-08-24T09:13:39;0.70;;;0.70;;
10827;SDS011;5467;59.334;13.512;2022-08-24T09:16:31;0.70;;;0.70;;
10827;SDS011;5467;59.334;13.512;2022-08-24T09:19:27;0.80;;;0.80;;
10827;SDS011;5467;59.334;13.512;2022-08-24T09:22:08;0.80;;;0.80;;
10827;SDS011;5467;59.334;13.512;2022-08-24T09:24:57;0.73;;;0.73;;
10827;SDS011;5467;59.334;13.512;2022-08-24T09:27:41;0.70;;;0.70;;
10827;SDS011;5467;59.334;13.512;2022-08-24T09:30:19;0.70;;;0.70;;
10827;SDS011;5467;59.334;13.512;2022-08-24T09:32:59;0.70;;;0.70;;
10827;SDS011;5467;59.334;13.512;2022-08-24T09:35:34;0.80;;;0.80;;
10827;SDS011;5467;59.334;13.512;2022-08-24T09:38:17;0.70;;;0.70;;
10827;SDS011;5467;59.334;13.512;2022-08-24T09:41:02;0.80;;;0.80;;
10827;SDS011;5467;59.334;13.512;2022-08-24T09:49:47;0.80;;;0.80;;
10827;SDS011;5467;59.334;13.512;2022-08-24T09:52:46;0.80;;;0.80;;
10827;SDS011;5467;59.334;13.512;2022-08-24T09:55:42;0.73;;;0.73;;
10827;SDS011;5467;59.334;13.512;2022-08-24T09:58:28;0.80;;;0.80;;
10827;SDS011;5467;59.334;13.512;2022-08-24T10:01:08;0.70;;;0.70;;
10827;SDS011;5467;59.334;13.512;2022-08-24T10:03:45;0.70;;;0.70;;
10827;SDS011;5467;59.334;13.512;2022-08-24T10:06:28;0.70;;;0.70;;
10827;SDS011;5467;59.334;13.512;2022-08-24T10:09:13;0.80;;;0.80;;
10827;SDS011;5467;59.334;13.512;2022-08-24T10:11:59;0.80;;;0.80;;
10827;SDS011;5467;59.334;13.512;2022-08-24T10:14:39;0.80;;;0.80;;
10827;SDS011;5467;59.334;13.512;2022-08-24T10:17:30;0.80;;;0.80;;
10827;SDS011;5467;59.334;13.512;2022-08-24T10:20:06;0.80;;;0.80;;
10827;SDS011;5467;59.334;13.512;2022-08-24T10:22:50;0.90;;;0.90;;
10827;SDS011;5467;59.334;13.512;2022-08-24T10:25:38;0.80;;;0.80;;
10827;SDS011;5467;59.334;13.512;2022-08-24T10:28:22;0.77;;;0.77;;
10827;SDS011;5467;59.334;13.512;2022-08-24T10:31:02;0.70;;;0.70;;
10827;SDS011;5467;59.334;13.512;2022-08-24T10:33:32;0.80;;;0.80;;
10827;SDS011;5467;59.334;13.512;2022-08-24T10:36:13;0.80;;;0.80;;
10827;SDS011;5467;59.334;13.512;2022-08-24T10:38:56;0.80;;;0.80;;
10827;SDS011;5467;59.334;13.512;2022-08-24T10:41:57;0.80;;;0.80;;
10827;SDS011;5467;59.334;13.512;2022-08-24T10:44:58;0.80;;;0.80;;
10827;SDS011;5467;59.334;13.512;2022-08-24T10:47:45;0.80;;;0.80;;
10827;SDS011;5467;59.334;13.512;2022-08-24T10:50:31;0.80;;;0.80;;
10827;SDS011;5467;59.334;13.512;2022-08-24T10:53:19;0.80;;;0.80;;
10827;SDS011;5467;59.334;13.512;2022-08-24T10:55:51;0.80;;;0.80;;
10827;SDS011;5467;59.334;13.512;2022-08-24T10:58:37;0.83;;;0.83;;
10827;SDS011;5467;59.334;13.512;2022-08-24T11:01:14;0.90;;;0.90;;
10827;SDS011;5467;59.334;13.512;2022-08-24T11:04:02;0.87;;;0.87;;
10827;SDS011;5467;59.334;13.512;2022-08-24T11:06:33;0.80;;;0.80;;
10827;SDS011;5467;59.334;13.512;2022-08-24T11:09:05;0.80;;;0.80;;
10827;SDS011;5467;59.334;13.512;2022-08-24T11:11:34;0.80;;;0.80;;
10827;SDS011;5467;59.334;13.512;2022-08-24T11:14:05;0.80;;;0.80;;
10827;SDS011;5467;59.334;13.512;2022-08-24T11:16:35;0.90;;;0.90;;
10827;SDS011;5467;59.334;13.512;2022-08-24T11:19:07;0.80;;;0.80;;
10827;SDS011;5467;59.334;13.512;2022-08-24T11:21:42;0.77;;;0.77;;
10827;SDS011;5467;59.334;13.512;2022-08-24T11:24:12;1.03;;;0.90;;
10827;SDS011;5467;59.334;13.512;2022-08-24T11:26:55;0.80;;;0.80;;
10827;SDS011;5467;59.334;13.512;2022-08-24T11:29:29;0.83;;;0.83;;
10827;SDS011;5467;59.334;13.512;2022-08-24T11:32:30;0.80;;;0.80;;
10827;SDS011;5467;59.334;13.512;2022-08-24T11:35:03;0.80;;;0.80;;
10827;SDS011;5467;59.334;13.512;2022-08-24T11:37:34;0.80;;;0.80;;
10827;SDS011;5467;59.334;13.512;2022-08-24T11:40:05;0.80;;;0.80;;
10827;SDS011;5467;59.334;13.512;2022-08-24T11:42:35;0.80;;;0.80;;
10827;SDS011;5467;59.334;13.512;2022-08-24T11:45:18;0.80;;;0.80;;
10827;SDS011;5467;59.334;13.512;2022-08-24T11:48:00;0.80;;;0.80;;
10827;SDS011;5467;59.334;13.512;2022-08-24T11:50:33;0.77;;;0.77;;
10827;SDS011;5467;59.334;13.512;2022-08-24T11:53:08;0.80;;;0.80;;
10827;SDS011;5467;59.334;13.512;2022-08-24T11:55:42;0.83;;;0.83;;
10827;SDS011;5467;59.334;13.512;2022-08-24T11:58:16;0.70;;;0.70;;
10827;SDS011;5467;59.334;13.512;2022-08-24T12:00:57;0.70;;;0.70;;
10827;SDS011;5467;59.334;13.512;2022-08-24T12:03:39;0.70;;;0.70;;
10827;SDS011;5467;59.334;13.512;2022-08-24T12:06:14;0.80;;;0.80;;
10827;SDS011;5467;59.334;13.512;2022-08-24T12:08:49;0.80;;;0.80;;
10827;SDS011;5467;59.334;13.512;2022-08-24T12:11:22;0.70;;;0.70;;
10827;SDS011;5467;59.334;13.512;2022-08-24T12:14:00;0.80;;;0.80;;
10827;SDS011;5467;59.334;13.512;2022-08-24T12:16:34;0.80;;;0.80;;
10827;SDS011;5467;59.334;13.512;2022-08-24T12:19:09;0.70;;;0.70;;
10827;SDS011;5467;59.334;13.512;2022-08-24T12:21:42;0.73;;;0.73;;
10827;SDS011;5467;59.334;13.512;2022-08-24T12:24:12;0.70;;;0.70;;
10827;SDS011;5467;59.334;13.512;2022-08-24T12:26:42;0.70;;;0.70;;
10827;SDS011;5467;59.334;13.512;2022-08-24T12:29:15;0.60;;;0.60;;
10827;SDS011;5467;59.334;13.512;2022-08-24T12:31:48;0.80;;;0.80;;
10827;SDS011;5467;59.334;13.512;2022-08-24T12:34:21;0.73;;;0.73;;
10827;SDS011;5467;59.334;13.512;2022-08-24T12:36:58;0.70;;;0.70;;
10827;SDS011;5467;59.334;13.512;2022-08-24T12:39:30;0.70;;;0.70;;
10827;SDS011;5467;59.334;13.512;2022-08-24T12:42:05;0.70;;;0.70;;
10827;SDS011;5467;59.334;13.512;2022-08-24T12:44:41;0.70;;;0.70;;
10827;SDS011;5467;59.334;13.512;2022-08-24T12:47:18;0.70;;;0.70;;
10827;SDS011;5467;59.334;13.512;2022-08-24T12:49:50;0.70;;;0.70;;
10827;SDS011;5467;59.334;13.512;2022-08-24T12:55:45;0.70;;;0.70;;
10827;SDS011;5467;59.334;13.512;2022-08-24T12:58:36;0.70;;;0.70;;
10827;SDS011;5467;59.334;13.512;2022-08-24T13:01:16;0.80;;;0.80;;
10827;SDS011;5467;59.334;13.512;2022-08-24T13:03:47;0.70;;;0.70;;
10827;SDS011;5467;59.334;13.512;2022-08-24T13:06:34;0.70;;;0.70;;
10827;SDS011;5467;59.334;13.512;2022-08-24T13:09:05;0.73;;;0.73;;
10827;SDS011;5467;59.334;13.512;2022-08-24T13:11:34;0.70;;;0.70;;
10827;SDS011;5467;59.334;13.512;2022-08-24T13:14:06;0.70;;;0.70;;
10827;SDS011;5467;59.334;13.512;2022-08-24T13:16:47;0.60;;;0.60;;
10827;SDS011;5467;59.334;13.512;2022-08-24T13:19:31;0.70;;;0.70;;
10827;SDS011;5467;59.334;13.512;2022-08-24T13:25:17;0.70;;;0.70;;
10827;SDS011;5467;59.334;13.512;2022-08-24T13:30:37;0.70;;;0.70;;
10827;SDS011;5467;59.334;13.512;2022-08-24T13:33:27;0.70;;;0.70;;
10827;SDS011;5467;59.334;13.512;2022-08-24T13:36:03;0.70;;;0.70;;
10827;SDS011;5467;59.334;13.512;2022-08-24T13:38:40;0.70;;;0.70;;
10827;SDS011;5467;59.334;13.512;2022-08-24T13:44:15;0.70;;;0.70;;
10827;SDS011;5467;59.334;13.512;2022-08-24T13:46:50;0.70;;;0.70;;
10827;SDS011;5467;59.334;13.512;2022-08-24T13:49:30;0.73;;;0.73;;
10827;SDS011;5467;59.334;13.512;2022-08-24T13:52:11;0.70;;;0.70;;
10827;SDS011;5467;59.334;13.512;2022-08-24T13:54:51;0.70;;;0.70;;
10827;SDS011;5467;59.334;13.512;2022-08-24T13:57:32;0.67;;;0.67;;
10827;SDS011;5467;59.334;13.512;2022-08-24T14:00:15;0.80;;;0.80;;
10827;SDS011;5467;59.334;13.512;2022-08-24T14:03:08;0.70;;;0.70;;
10827;SDS011;5467;59.334;13.512;2022-08-24T14:05:48;0.67;;;0.67;;
10827;SDS011;5467;59.334;13.512;2022-08-24T14:08:29;0.70;;;0.70;;
10827;SDS011;5467;59.334;13.512;2022-08-24T14:11:07;0.70;;;0.70;;
10827;SDS011;5467;59.334;13.512;2022-08-24T14:16:42;0.60;;;0.60;;
10827;SDS011;5467;59.334;13.512;2022-08-24T14:19:38;0.60;;;0.60;;
10827;SDS011;5467;59.334;13.512;2022-08-24T14:22:31;0.70;;;0.70;;
10827;SDS011;5467;59.334;13.512;2022-08-24T14:25:14;0.70;;;0.70;;
10827;SDS011;5467;59.334;13.512;2022-08-24T14:27:43;0.70;;;0.70;;
10827;SDS011;5467;59.334;13.512;2022-08-24T14:33:08;0.60;;;0.60;;
10827;SDS011;5467;59.334;13.512;2022-08-24T14:35:43;0.70;;;0.70;;
10827;SDS011;5467;59.334;13.512;2022-08-24T14:38:34;0.60;;;0.60;;
10827;SDS011;5467;59.334;13.512;2022-08-24T14:41:20;0.60;;;0.60;;
10827;SDS011;5467;59.334;13.512;2022-08-24T14:44:04;0.70;;;0.70;;
10827;SDS011;5467;59.334;13.512;2022-08-24T14:46:43;0.67;;;0.67;;
10827;SDS011;5467;59.334;13.512;2022-08-24T14:49:19;0.60;;;0.60;;
10827;SDS011;5467;59.334;13.512;2022-08-24T14:51:54;0.60;;;0.60;;
10827;SDS011;5467;59.334;13.512;2022-08-24T14:54:34;0.60;;;0.60;;
10827;SDS011;5467;59.334;13.512;2022-08-24T14:57:16;0.70;;;0.70;;
10827;SDS011;5467;59.334;13.512;2022-08-24T14:59:55;0.60;;;0.60;;
10827;SDS011;5467;59.334;13.512;2022-08-24T15:02:41;0.60;;;0.60;;
10827;SDS011;5467;59.334;13.512;2022-08-24T15:05:28;0.70;;;0.70;;
10827;SDS011;5467;59.334;13.512;2022-08-24T15:08:06;0.50;;;0.50;;
10827;SDS011;5467;59.334;13.512;2022-08-24T15:10:35;0.60;;;0.60;;
10827;SDS011;5467;59.334;13.512;2022-08-24T15:13:09;0.50;;;0.50;;
10827;SDS011;5467;59.334;13.512;2022-08-24T15:15:40;0.50;;;0.50;;
10827;SDS011;5467;59.334;13.512;2022-08-24T15:18:12;0.50;;;0.50;;
10827;SDS011;5467;59.334;13.512;2022-08-24T15:20:53;0.57;;;0.57;;
10827;SDS011;5467;59.334;13.512;2022-08-24T15:23:32;0.57;;;0.57;;
10827;SDS011;5467;59.334;13.512;2022-08-24T15:26:14;0.60;;;0.60;;
10827;SDS011;5467;59.334;13.512;2022-08-24T15:28:51;0.50;;;0.50;;
10827;SDS011;5467;59.334;13.512;2022-08-24T15:31:20;0.50;;;0.50;;
10827;SDS011;5467;59.334;13.512;2022-08-24T15:33:50;0.60;;;0.60;;
10827;SDS011;5467;59.334;13.512;2022-08-24T15:36:18;0.53;;;0.53;;
10827;SDS011;5467;59.334;13.512;2022-08-24T15:38:45;0.60;;;0.60;;
10827;SDS011;5467;59.334;13.512;2022-08-24T15:41:13;0.50;;;0.50;;
10827;SDS011;5467;59.334;13.512;2022-08-24T15:43:43;0.60;;;0.60;;
10827;SDS011;5467;59.334;13.512;2022-08-24T15:46:18;0.60;;;0.60;;